Flight Track Log - Related Links

Times and Time Zones

All times are in EDT time to prevent confusion due to time zone crossing. See the FLG4222 flight status page for this flight to view local times or setup timezone preferences in your user account.

Time Position Orientation Groundspeed Altitude Reporting Facility
EDT Latitude Longitude Course Direction KTS MPH feet Rate Location/Type
Tue 11:43:28 AM 42.2317 -76.1658 273° West 235 270 7,200  Level Cleveland Center
Tue 11:44:30 AM 42.2575 -76.2558 291° West 243 280 10,200 2,195 Climbing Cleveland Center
Tue 11:45:31 AM 42.2567 -76.3669 269° West 290 334 11,700 1,366 Climbing Cleveland Center
Tue 11:46:33 AM 42.2467 -76.4847 263° West 309 356 13,000 1,366 Climbing Cleveland Center
Tue 11:47:34 AM 42.2403 -76.6106 266° West 327 376 14,500 1,415 Climbing Cleveland Center
Tue 11:48:36 AM 42.2717 -76.7394 288° West 385 443 15,900 1,366 Climbing Cleveland Center
Tue 11:49:37 AM 42.3133 -76.8583 295° West 356 410 17,300 1,220 Climbing Cleveland Center
Tue 11:50:39 AM 42.3550 -76.9750 296° West 350 403 18,400 1,122 Climbing Cleveland Center
Tue 11:51:40 AM 42.4028 -77.1111 295° West 357 411 19,600 1,122 Climbing Cleveland Center
Tue 11:52:42 AM 42.4489 -77.2425 295° West 359 413 20,700 1,024 Climbing Cleveland Center
Tue 11:53:43 AM 42.4828 -77.3697 290° West 361 415 21,700 976 Climbing Cleveland Center
Tue 11:54:45 AM 42.4933 -77.5042 276° West 360 414 22,700 976 Climbing Cleveland Center
Tue 11:55:46 AM 42.5047 -77.6369 277° West 355 409 23,700 976 Climbing Cleveland Center
Tue 11:56:48 AM 42.5139 -77.7683 275° West 353 406 24,700 1,016 Climbing Cleveland Center
Tue 11:57:50 AM 42.5236 -77.9111 275° West 352 405 25,800 634 Climbing Cleveland Center
Tue 11:58:51 AM 42.5347 -78.0417 277° West 355 409 26,000 98 Climbing Cleveland Center
Tue 11:59:53 AM 42.5436 -78.1803 275° West 372 428 26,000  Level Cleveland Center
Tue 12:00:54 PM 42.5547 -78.3239 276° West 387 445 26,000  Level Cleveland Center
Tue 12:01:56 PM 42.5642 -78.4697 275° West 395 455 26,000  Level Cleveland Center
Tue 12:02:58 PM 42.5750 -78.6506 275° West 407 468 26,000  Level Cleveland Center
Tue 12:03:59 PM 42.5867 -78.8081 276° West 404 465 26,000  Level Cleveland Center
Tue 12:05:01 PM 42.5956 -78.9556 275° West 407 468 26,000  Level Cleveland Center
Tue 12:06:03 PM 42.6067 -79.1136 276° West 403 464 26,000  Level Cleveland Center
Tue 12:07:04 PM 42.6167 -79.2731 275° West 405 466 26,000  Level Cleveland Center
Tue 12:08:06 PM 42.6267 -79.4317 275° West 404 465 26,000  Level Cleveland Center
Tue 12:09:08 PM 42.6356 -79.5778 275° West 405 466 26,000  Level Cleveland Center
Tue 12:10:09 PM 42.6450 -79.7367 275° West 404 465 26,000  Level Cleveland Center
Tue 12:11:11 PM 42.6544 -79.8950 275° West 402 463 26,000  Level Cleveland Center
Tue 12:12:13 PM 42.6617 -80.0333 274° West 404 465 26,000  Level Cleveland Center
Tue 12:13:15 PM 42.6714 -80.2122 274° West 405 466 26,000  Level Cleveland Center
Tue 12:14:17 PM 42.6800 -80.3639 274° West 402 463 26,000  Level Cleveland Center
Tue 12:15:19 PM 42.6878 -80.5147 274° West 398 458 26,000 -195 Level Cleveland Center
Tue 12:16:20 PM 42.6950 -80.6653 274° West 396 456 25,600 -439 Descending Cleveland Center
Tue 12:17:22 PM 42.7028 -80.8161 274° West 398 458 25,100 -484 Descending Cleveland Center
Tue 12:18:24 PM 42.6964 -80.9628 267° West 391 450 24,600 -484 Descending Cleveland Center
Tue 12:19:26 PM 42.6806 -81.1072 262° West 385 443 24,100 -726 Descending Cleveland Center
Tue 12:20:28 PM 42.6644 -81.2508 261° West 383 441 23,100 -1,065 Descending Cleveland Center
Tue 12:21:30 PM 42.6450 -81.4114 261° West 368 423 21,900 -1,065 Descending Cleveland Center
Tue 12:22:32 PM 42.6297 -81.5467 261° West 363 418 20,900 -968 Descending Cleveland Center
Tue 12:23:34 PM 42.6139 -81.6811 261° West 359 413 19,900 -968 Descending Cleveland Center
Tue 12:24:36 PM 42.5992 -81.8075 261° West 358 412 18,900 -968 Descending Cleveland Center
Tue 12:25:38 PM 42.5833 -81.9406 261° West 357 411 17,900 -1,113 Descending Cleveland Center
Tue 12:26:40 PM 42.5669 -82.0719 260° West 355 409 16,600 -1,452 Descending Cleveland Center
Tue 12:27:42 PM 42.5483 -82.2267 261° West 350 403 14,900 -1,629 Descending Cleveland Center
Tue 12:27:50 PM 42.5472 -82.2486 266° West 349 402 14,700 -1,355 Descending Cleveland Center
Tue 12:28:44 PM 42.5314 -82.3547 259° West 347 399 13,500 -1,451 Descending Cleveland Center
Tue 12:29:21 PM 42.5219 -82.4353 261° West 315 362 12,500 -1,355 Descending Cleveland Center
Tue 12:29:46 PM 42.5167 -82.4700 258° West 324 373 12,100 -492 Descending Cleveland Center
Tue 12:30:22 PM 42.5083 -82.5408 261° West 270 311 12,000 -97 Descending Cleveland Center
Tue 12:30:48 PM 42.4989 -82.5703 246° West 286 329 12,000 -1,082 Level Cleveland Center
Tue 12:31:23 PM 42.4761 -82.6386 246° West 282 325 10,900 -1,645 Descending Cleveland Center
Tue 12:31:50 PM 42.4647 -82.6642 239° Southwest 279 321 10,300 -1,770 Descending Cleveland Center
Tue 12:32:24 PM 42.4422 -82.7331 246° West 266 306 9,100 -1,258 Descending Cleveland Center
Tue 12:32:52 PM 42.4325 -82.7550 239° Southwest 273 314 9,000 -393 Descending Cleveland Center
Tue 12:33:25 PM 42.4031 -82.8128 235° Southwest 233 268 8,700 -871 Descending Cleveland Center
Tue 12:33:54 PM 42.3858 -82.8425 232° Southwest 242 278 8,100 -1,377 Descending Cleveland Center
Tue 12:34:26 PM 42.3786 -82.8858 257° West 224 258 7,300 -1,065 Descending Cleveland Center
Tue 12:34:56 PM 42.3881 -82.9183 291° West 227 261 7,000 -327 Descending Cleveland Center
Tue 12:35:21 PM 42.4028 -82.9569 297° West 223 257 7,000  Level Cleveland Center
Tue 12:35:58 PM 42.4269 -82.9811 324° Northwest 227 261 7,000  Level Cleveland Center
Tue 12:36:28 PM 42.4594 -83.0125 325° Northwest 234 269 7,000  Level Cleveland Center
Tue 12:37:00 PM 42.4775 -83.0286 327° Northwest 225 259 7,000  Level Cleveland Center
Tue 12:37:23 PM 42.5028 -83.0497 328° Northwest 187 215 7,000  Level Cleveland Center
Tue 12:38:02 PM 42.5106 -83.0728 295° West 188 216 7,000  Level Cleveland Center
Tue 12:38:30 PM 42.4978 -83.1142 247° West 179 206 7,000 -290 Level Cleveland Center
Tue 12:39:04 PM 42.4800 -83.1408 228° Southwest 179 206 6,700 -980 Descending Cleveland Center
Tue 12:39:19 PM 42.4681 -83.1494 208° Southwest 182 209 6,200 -1,161 Descending Cleveland Center
Tue 12:40:06 PM 42.4369 -83.1706 207° Southwest 176 203 5,500 -896 Descending Cleveland Center
Tue 12:40:26 PM 42.4211 -83.1856 215° Southwest 167 192 5,200 -871 Descending Cleveland Center
Tue 12:41:08 PM 42.3958 -83.2008 204° Southwest 168 193 4,600 -964 Descending Cleveland Center
Tue 12:41:22 PM 42.3833 -83.2142 218° Southwest 169 194 4,300 -871 Descending Cleveland Center
Tue 12:42:10 PM 42.3550 -83.2325 206° Southwest 169 194 3,700 -787 Descending Cleveland Center
Tue 12:42:23 PM 42.3414 -83.2422 208° Southwest 165 190 3,500 -774 Descending Cleveland Center
Tue 12:43:12 PM 42.3147 -83.2614 208° Southwest 165 190 2,900 -882 Descending Cleveland Center
Tue 12:43:31 PM 42.2969 -83.2756 211° Southwest 159 183 2,500 -774 Descending Cleveland Center
Tue 12:44:14 PM 42.2778 -83.2889 207° Southwest 159 183 2,100 -787 Descending Cleveland Center
Tue 12:44:32 PM 42.2636 -83.3019 214° Southwest 132 152 1,700 -774 Descending Cleveland Center
Tue 12:45:16 PM 42.2461 -83.3133 206° Southwest 142 163 1,300 -700 Descending Cleveland Center
Tue 12:45:32 PM 42.2303 -83.3253 209° Southwest 134 154 1,000 -387 Descending Cleveland Center
Tue 12:46:18 PM 42.2094 -83.3411 209° Southwest 137 158 900 -130 Descending Cleveland Center
Tue 12:48:00 PM 42.2000 -83.3500 236° Southwest  Level FlightAware Approximate
Tue 12:55:00 PM 42.2124 -83.3534 236° Southwest  Level Estimated

Login

Don't have an account? Register now (free) for customized features, flight alerts, and more!